Terminal Aerodrome Forecast
Issued by NWS Tuscon, AZ

Home | Current Version | Previous Version | Text Only | Print | Product List | Glossary On
Versions: 1 2 3 4 5 6 7 8 9 10 11 12 13 14 15 16
000
FTUS45 KTWC 221100
TAFTUS
TAF
KTUS 221128Z 2212/2312 14008KT P6SM SKC
     FM222100 35007KT P6SM FEW100
     FM230200 20005KT P6SM SKC
     FM230700 14007KT P6SM SKC=

USA.gov is the U.S. government's official web portal to all federal, state and local government web resources and services.